Home > Products > Valid Products > TAF

000
FTUS42 KJAX 190555
TAFSSI
TAF
KSSI 190555Z 1906/2006 18005KT P6SM SCT004 BKN120 OVC250
     FM191300 18008KT P6SM SCT020 BKN250
     FM191900 18010G15KT P6SM VCTS SCT030CB BKN050 OVC200
      TEMPO 1919/1923 VRB15G25KT 3SM +TSRA BKN025CB OVC090
     FM200100 19006KT P6SM VCSH SCT025 BKN120=



000
FTUS42 KJAX 190555
TAFGNV
TAF
KGNV 190555Z 1906/2006 19003KT 5SM BR SCT003 BKN120
     FM191300 18008KT P6SM SCT020 BKN250
     FM191900 22010G15KT P6SM VCTS SCT030CB BKN050 OVC200
      TEMPO 1919/1923 VRB15G25KT 3SM +TSRA BKN025CB OVC090
     FM200100 21006KT P6SM VCSH SCT025 BKN120=



000
FTUS42 KJAX 190555
TAFJAX
TAF
KJAX 190555Z 1906/2006 19003KT 3SM BR SCT003 SCT080 BKN110
     FM191300 19008KT P6SM SCT020 BKN250
     FM191900 22009G15KT P6SM VCTS SCT030CB BKN050 OVC200
      TEMPO 1919/1923 VRB15G25KT 3SM +TSRA BKN025CB OVC050
     FM200100 21006KT P6SM VCSH SCT025 BKN120=



000
FTUS42 KJAX 190555
TAFJAX
TAF
KJAX 190555Z 1906/2006 19003KT 3SM BR SCT003 SCT080 BKN110
     FM191300 19008KT P6SM SCT020 BKN250
     FM191900 22009G15KT P6SM VCTS SCT030CB BKN050 OVC200
      TEMPO 1919/1923 VRB15G25KT 3SM +TSRA BKN025CB OVC050
     FM200100 21006KT P6SM VCSH SCT025 BKN120=



000
FTUS42 KJAX 190555
TAFGNV
TAF
KGNV 190555Z 1906/2006 19003KT 5SM BR SCT003 BKN120
     FM191300 18008KT P6SM SCT020 BKN250
     FM191900 22010G15KT P6SM VCTS SCT030CB BKN050 OVC200
      TEMPO 1919/1923 VRB15G25KT 3SM +TSRA BKN025CB OVC090
     FM200100 21006KT P6SM VCSH SCT025 BKN120=



000
FTUS42 KJAX 190555
TAFSSI
TAF
KSSI 190555Z 1906/2006 18005KT P6SM SCT004 BKN120 OVC250
     FM191300 18008KT P6SM SCT020 BKN250
     FM191900 18010G15KT P6SM VCTS SCT030CB BKN050 OVC200
      TEMPO 1919/1923 VRB15G25KT 3SM +TSRA BKN025CB OVC090
     FM200100 19006KT P6SM VCSH SCT025 BKN120=



000
FTUS42 KJAX 190555
TAFCRG
TAF
KCRG 190555Z 1906/2006 17003KT 4SM BR SCT003 SCT080 BKN120
     FM191300 19008KT P6SM SCT020 BKN250
     FM191900 22009G15KT P6SM VCTS SCT030CB BKN050 OVC200
      TEMPO 1919/1923 VRB15G25KT 3SM +TSRA BKN025CB OVC050
     FM200100 21006KT P6SM VCSH SCT025 BKN120=



000
FTUS42 KJAX 190107 AAA
TAFSSI
TAF AMD
KSSI 190107Z 1901/1924 VRB05KT P6SM VCSH BKN020 OVC090
     FM190200 20005KT P6SM BKN120 OVC250
     FM191300 20010G15KT P6SM SCT025 BKN250
     FM191900 17012G20KT P6SM VCTS SCT030CB BKN120 OVC200 PROB30
      1920/1924 3SM +TSRA BKN025CB OVC090=



000
FTUS42 KJAX 182345
TAFSSI
TAF
KSSI 182345Z 1900/1924 VRB10G20KT 1SM +TSRA BR SCT010 BKN025CB
      OVC090
     FM190130 VRB03KT P6SM VCSH SCT025 BKN120 OVC250
     FM190900 24007KT P6SM OVC250
     FM191300 20010G15KT P6SM SCT025 BKN250
     FM191900 17012G20KT P6SM VCTS SCT030CB BKN120 OVC200 PROB30
      1920/1924 3SM +TSRA BKN025CB OVC090=



000
FTUS42 KJAX 182345
TAFCRG
TAF
KCRG 182345Z 1900/1924 VRB03KT 6SM -SHRA BR FEW020 BKN080 OVC120
     FM190130 21003KT P6SM SCT025 BKN120 OVC250
     FM190900 24007KT P6SM OVC250
     FM191300 20010KT P6SM SCT025 BKN250
     FM192100 23011G16KT P6SM VCTS SCT030CB BKN120 OVC200 PROB30
      1921/1924 VRB15G25KT 3SM +TSRA BKN025CB OVC090=



000
FTUS42 KJAX 182345
TAFGNV
TAF
KGNV 182345Z 1900/1924 26008KT P6SM BKN250
     FM190200 24003KT P6SM OVC250
     FM191000 24006KT P6SM SCT015 OVC250
     FM191300 20008KT P6SM SCT025 BKN250
     FM191900 23010G15KT P6SM VCTS SCT030CB BKN120 OVC200 PROB30
      1919/1923 VRB15G25KT 3SM +TSRA BKN025CB OVC090=



000
FTUS42 KJAX 182345
TAFJAX
TAF
KJAX 182345Z 1900/1924 VRB03KT 6SM -SHRA BR FEW020 BKN080 OVC120
     FM190130 21003KT P6SM SCT025 BKN120 OVC250
     FM190900 24006KT P6SM OVC250
     FM191300 20009KT P6SM SCT025 BKN250
     FM192000 23010G15KT P6SM VCTS SCT030CB BKN120 OVC200 PROB30
      1920/1924 VRB15G25KT 3SM +TSRA BKN025CB OVC090=



000
FTUS42 KJAX 182345
TAFCRG
TAF
KCRG 182345Z 1900/1924 VRB03KT 6SM -SHRA BR FEW020 BKN080 OVC120
     FM190130 21003KT P6SM SCT025 BKN120 OVC250
     FM190900 24007KT P6SM OVC250
     FM191300 20010KT P6SM SCT025 BKN250
     FM192100 23011G16KT P6SM VCTS SCT030CB BKN120 OVC200 PROB30
      1921/1924 VRB15G25KT 3SM +TSRA BKN025CB OVC090=



000
FTUS42 KJAX 182345
TAFGNV
TAF
KGNV 182345Z 1900/1924 26008KT P6SM BKN250
     FM190200 24003KT P6SM OVC250
     FM191000 24006KT P6SM SCT015 OVC250
     FM191300 20008KT P6SM SCT025 BKN250
     FM191900 23010G15KT P6SM VCTS SCT030CB BKN120 OVC200 PROB30
      1919/1923 VRB15G25KT 3SM +TSRA BKN025CB OVC090=



000
FTUS42 KJAX 182345
TAFJAX
TAF
KJAX 182345Z 1900/1924 VRB03KT 6SM -SHRA BR FEW020 BKN080 OVC120
     FM190130 21003KT P6SM SCT025 BKN120 OVC250
     FM190900 24006KT P6SM OVC250
     FM191300 20009KT P6SM SCT025 BKN250
     FM192000 23010G15KT P6SM VCTS SCT030CB BKN120 OVC200 PROB30
      1920/1924 VRB15G25KT 3SM +TSRA BKN025CB OVC090=



000
FTUS42 KJAX 182345
TAFSSI
TAF
KSSI 182345Z 1900/1924 VRB10G20KT 1SM +TSRA BR SCT010 BKN025CB
      OVC090
     FM190130 VRB03KT P6SM VCSH SCT025 BKN120 OVC250
     FM190900 24007KT P6SM OVC250
     FM191300 20010G15KT P6SM SCT025 BKN250
     FM191900 17012G20KT P6SM VCTS SCT030CB BKN120 OVC200 PROB30
      1920/1924 3SM +TSRA BKN025CB OVC090=



000
FTUS42 KJAX 182239 AAC
TAFCRG
TAF AMD
KCRG 182239Z 1823/1918 VRB05KT 5SM -SHRA VCTS SCT020 BKN035CB
      OVC090
     FM190000 23003KT 6SM -SHRA BR SCT025 BKN070 OVC100
     FM190100 22004KT P6SM SCT025 BKN120 OVC250
     FM190900 25003KT P6SM SCT015 OVC250
     FM191300 24006KT P6SM SCT025 BKN250=



000
FTUS42 KJAX 182239 AAC
TAFCRG
TAF AMD
KCRG 182239Z 1823/1918 VRB05KT 5SM -SHRA VCTS SCT020 BKN035CB
      OVC090
     FM190000 23003KT 6SM -SHRA BR SCT025 BKN070 OVC100
     FM190100 22004KT P6SM SCT025 BKN120 OVC250
     FM190900 25003KT P6SM SCT015 OVC250
     FM191300 24006KT P6SM SCT025 BKN250=



000
FTUS42 KJAX 182208 AAE
TAFJAX
TAF AMD
KJAX 182208Z 1822/1918 VRB05KT 5SM -SHRA VCTS SCT020 BKN035CB
      OVC090
     FM190000 23003KT 6SM -SHRA SCT025 BKN070 OVC100
     FM190100 22004KT P6SM SCT025 BKN120 OVC250
     FM190900 25003KT P6SM SCT015 OVC250
     FM191300 24006KT P6SM SCT025 BKN250=



000
FTUS42 KJAX 182208 AAE
TAFJAX
TAF AMD
KJAX 182208Z 1822/1918 VRB05KT 5SM -SHRA VCTS SCT020 BKN035CB
      OVC090
     FM190000 23003KT 6SM -SHRA SCT025 BKN070 OVC100
     FM190100 22004KT P6SM SCT025 BKN120 OVC250
     FM190900 25003KT P6SM SCT015 OVC250
     FM191300 24006KT P6SM SCT025 BKN250=



000
FTUS42 KJAX 182145 AAB
TAFCRG
TAF AMD
KCRG 182145Z 1822/1918 VRB20G30KT 3/4SM +TSRA SCT020 BKN030CB
      OVC090
     FM182300 VRB05KT P6SM VCTS SCT025 BKN035CB OVC100
     FM190300 22004KT P6SM SCT025 BKN120 OVC250
     FM190900 25003KT P6SM SCT015 OVC250
     FM191300 24006KT P6SM SCT025 BKN250=



000
FTUS42 KJAX 182143 AAG
TAFJAX
TAF AMD
KJAX 182143Z 1822/1918 27025G35KT 3/4SM +TSRA SCT020 BKN030CB
      OVC090
     FM182300 VRB05KT P6SM VCTS SCT025 BKN035CB OVC100
     FM190300 22004KT P6SM SCT025 BKN120 OVC250
     FM190900 25003KT P6SM SCT015 OVC250
     FM191300 24006KT P6SM SCT025 BKN250=



000
FTUS42 KJAX 182125 AAF
TAFJAX
TAF AMD
KJAX 182125Z 1821/1918 13009KT P6SM VCTS SCT040CB SCT070 BKN150
      TEMPO 1822/1902 27015G25KT 2SM +TSRA BR BKN030CB BKN100 OVC250
     FM190300 22004KT P6SM SCT025 BKN120 OVC250
     FM190900 25003KT P6SM SCT015 OVC250
     FM191300 24006KT P6SM SCT025 BKN250=



000
FTUS42 KJAX 182116 AAD
TAFSSI
TAF AMD
KSSI 182116Z 1821/1918 10005KT P6SM VCTS SCT020 SCT035CB BKN150
      TEMPO 1822/1823 3SM +SHRA BR BKN020 BKN100 OVC250
     FM190300 21004KT P6SM VCSH SCT025 BKN120 OVC250
     FM190400 22003KT P6SM OVC250
     FM191300 24008KT P6SM SCT025 BKN250=



000
FTUS42 KJAX 182102 AAD
TAFJAX
TAF AMD
KJAX 182102Z 1821/1918 25007KT P6SM VCTS SCT040CB SCT070 BKN150
      TEMPO 1822/1902 3SM +TSRA BR BKN030CB BKN100 OVC250
     FM190300 22004KT P6SM SCT025 BKN120 OVC250
     FM190900 25003KT P6SM SCT015 OVC250
     FM191300 24006KT P6SM SCT025 BKN250=



000
FTUS42 KJAX 182047 AAB
TAFGNV
TAF AMD
KGNV 182047Z 1821/1918 23010KT P6SM VCSH SCT045 BKN060 BKN150
     FM190100 22005KT P6SM SCT150 BKN250
     FM190900 00000KT P6SM SCT015 OVC250
     FM191300 24007KT P6SM SCT025 BKN250=



000
FTUS42 KJAX 182028 AAC
TAFSSI
TAF AMD
KSSI 182028Z 1820/1918 10005KT P6SM VCSH SCT020 BKN050 OVC090
     FM182200 13008KT P6SM VCTS SCT035CB BKN150 BKN250
      TEMPO 1823/1902 3SM TSRA BR BKN030CB BKN100 OVC250
     FM190300 21004KT P6SM VCSH SCT025 BKN120 OVC250
     FM190400 22003KT P6SM OVC250
     FM191300 24008KT P6SM SCT025 BKN250=



000
FTUS42 KJAX 182025 AAC
TAFJAX
TAF AMD
KJAX 182025Z 1820/1918 27008KT P6SM VCSH SCT040 SCT060 BKN150
     FM182200 13008KT P6SM VCTS SCT035CB BKN150 BKN250
      TEMPO 1822/1902 3SM TSRA BR BKN030CB BKN100 OVC250
     FM190300 22004KT P6SM VCSH SCT025 BKN120 OVC250
     FM190900 25003KT P6SM SCT015 OVC250
     FM191300 24006KT P6SM SCT025 BKN250=



000
FTUS42 KJAX 181939 AAB
TAFSSI
TAF AMD
KSSI 181939Z 1820/1918 13010KT 1SM +SHRA VCTS BKN015 BKN030CB
      OVC090
     FM182100 13008KT P6SM VCTS SCT035CB BKN150 BKN250
      TEMPO 1823/1902 3SM TSRA BR BKN030CB BKN100 OVC250
     FM190300 21004KT P6SM VCSH SCT025 BKN120 OVC250
     FM190400 22003KT P6SM OVC250
     FM191300 24008KT P6SM SCT025 BKN250=



000
FTUS42 KJAX 181931 AAA
TAFGNV
TAF AMD
KGNV 181931Z 1820/1918 23010KT P6SM SCT045 BKN060 BKN150
     FM182100 23008KT P6SM VCTS SCT035CB BKN150 BKN250
      TEMPO 1822/1824 3SM TSRA BR BKN030CB BKN100 OVC250
     FM190200 22004KT P6SM BKN120 OVC250
     FM190900 00000KT P6SM SCT015 OVC250
     FM191300 24007KT P6SM SCT025 BKN250=



000
FTUS42 KJAX 181919 AAA
TAFCRG
TAF AMD
KCRG 181919Z 1819/1918 13008KT P6SM SCT040 SCT060 BKN150
     FM182100 13009KT P6SM VCTS SCT035CB BKN150 BKN250
      TEMPO 1822/1902 3SM TSRA BR BKN030CB BKN100 OVC250
     FM190300 22004KT P6SM VCSH SCT025 BKN120 OVC250
     FM190900 25005KT P6SM SCT015 OVC250
     FM191300 24009KT P6SM SCT025 BKN250=



000
FTUS42 KJAX 181917 AAA
TAFSSI
TAF AMD
KSSI 181917Z 1819/1918 13010KT P6SM VCSH SCT015 BKN040 BKN250
      TEMPO 1820/1821 3SM SHRA BR BKN015
     FM182100 13008KT P6SM VCTS SCT035CB BKN150 BKN250
      TEMPO 1822/1902 3SM TSRA BR BKN030CB BKN100 OVC250
     FM190300 21004KT P6SM VCSH SCT025 BKN120 OVC250
     FM190400 22003KT P6SM OVC250
     FM191300 24008KT P6SM SCT025 BKN250=



000
FTUS42 KJAX 181906 AAA
TAFJAX
TAF AMD
KJAX 181906Z 1819/1918 22008KT P6SM SCT040 SCT060 BKN150
     FM182100 13008KT P6SM VCTS SCT035CB BKN150 BKN250
      TEMPO 1822/1902 3SM TSRA BR BKN030CB BKN100 OVC250
     FM190300 22004KT P6SM VCSH SCT025 BKN120 OVC250
     FM190900 25003KT P6SM SCT015 OVC250
     FM191300 24006KT P6SM SCT025 BKN250=



000
FTUS42 KJAX 181739
TAFGNV
TAF
KGNV 181739Z 1818/1918 24010KT P6SM VCTS FEW035 SCT050CB BKN100
     FM190300 VRB02KT P6SM OVC250
     FM190900 00000KT 3SM BR OVC250
     FM191300 13002KT P6SM OVC050 PROB30 1913/1918 3SM TSRA BKN025
      BKN050CB=



000
FTUS42 KJAX 181739
TAFSSI
TAF
KSSI 181739Z 1818/1918 12006KT P6SM VCTS SCT035 SCT050CB BKN060
     FM182100 15008KT P6SM OVC100
     FM190200 15005KT P6SM OVC100
      TEMPO 1902/1906 P6SM -SHRA BKN050 OVC100
     FM190600 VRB03KT P6SM OVC050 PROB30 1906/1912 P6SM -SHRA OVC050
     FM191200 15008KT P6SM OVC050 PROB30 1912/1918 P6SM -SHRA
      OVC050=



000
FTUS42 KJAX 181739
TAFCRG
TAF
KCRG 181739Z 1818/1918 VRB04KT P6SM VCSH BKN035 BKN045
     FM182100 18005KT P6SM VCTS SCT035 OVC050CB
     FM190300 19002KT P6SM OVC100
     FM190600 VRB03KT P6SM OVC100
      TEMPO 1909/1913 3SM BR
     FM191300 18005KT 5SM BR OVC050 PROB30 1913/1915 5SM TSRA
      BKN025CB BKN050=



000
FTUS42 KJAX 181739
TAFJAX
TAF
KJAX 181739Z 1818/1918 27008KT P6SM VCSH SCT030 SCT060 BKN250
      TEMPO 1818/1821 BKN030 BKN060
     FM182100 15008KT P6SM VCTS SCT030 BKN050CB
     FM190300 VRB03KT P6SM SCT025 OVC100
     FM190900 15002KT P6SM OVC025
      TEMPO 1909/1913 3SM BR
     FM191300 18006KT P6SM VCTS SCT025CB BKN050 PROB30 1913/1918 4SM
      TSRA BKN025CB BKN050=



000
FTUS42 KJAX 181521 AAB
TAFSSI
TAF AMD
KSSI 181521Z 1815/1912 16005KT P6SM SCT010 SCT030 BKN045
      TEMPO 1815/1818 BKN010 BKN030 BKN045
     FM181800 15008KT P6SM VCSH SCT025 BKN040
     FM190600 VRB03KT P6SM OVC050 PROB30 1906/1912 P6SM -RA OVC050=



000
FTUS42 KJAX 181521 AAB
TAFSSI
TAF AMD
KSSI 181521Z 1815/1912 16005KT P6SM SCT010 SCT030 BKN045
      TEMPO 1815/1818 BKN010 BKN030 BKN045
     FM181800 15008KT P6SM VCSH SCT025 BKN040
     FM190600 VRB03KT P6SM OVC050 PROB30 1906/1912 P6SM -RA OVC050=



000
FTUS42 KJAX 181518 AAB
TAFCRG
TAF AMD
KCRG 181518Z 1815/1912 24008KT P6SM SCT020 BKN030
      TEMPO 1815/1818 BKN020 BKN030
     FM181800 15008KT P6SM VCSH SCT030 BKN050
      TEMPO 1818/1821 BKN030 BKN050
     FM190600 VRB03KT P6SM OVC100
      TEMPO 1908/1912 5SM HZ=



000
FTUS42 KJAX 181516 AAC
TAFJAX
TAF AMD
KJAX 181516Z 1815/1912 28004KT P6SM SCT020 BKN025 BKN250
      TEMPO 1815/1818 BKN020 BKN025
     FM181800 27005KT P6SM SCT030 BKN050
      TEMPO 1818/1821 BKN030 BKN050
     FM182100 15008KT P6SM VCSH SCT030 BKN050
     FM190000 VRB03KT P6SM SCT025 OVC100=



000
FTUS42 KJAX 181516 AAC
TAFJAX
TAF AMD
KJAX 181516Z 1815/1912 28004KT P6SM SCT020 BKN025 BKN250
      TEMPO 1815/1818 BKN020 BKN025
     FM181800 27005KT P6SM SCT030 BKN050
      TEMPO 1818/1821 BKN030 BKN050
     FM182100 15008KT P6SM VCSH SCT030 BKN050
     FM190000 VRB03KT P6SM SCT025 OVC100=



000
FTUS42 KJAX 181511 AAB
TAFGNV
TAF AMD
KGNV 181511Z 1815/1912 23008KT P6SM SCT015
      TEMPO 1815/1816 BKN015
     FM181600 24006KT P6SM SCT025 BKN040
      TEMPO 1816/1818 BKN025
     FM181800 24008KT P6SM VCTS SCT030CB BKN050
     FM190000 24005KT P6SM VCSH SCT030 BKN100=



000
FTUS42 KJAX 181316 AAA
TAFSSI
TAF AMD
KSSI 181316Z 1813/1912 15004KT P6SM BKN020
      TEMPO 1813/1815 SCT020
     FM181600 18005KT P6SM SCT025 BKN040
     FM181800 15008KT P6SM VCSH SCT025 BKN040
     FM190600 VRB03KT P6SM OVC050 PROB30 1906/1912 P6SM -RA OVC050=



000
FTUS42 KJAX 181316 AAA
TAFSSI
TAF AMD
KSSI 181316Z 1813/1912 15004KT P6SM BKN020
      TEMPO 1813/1815 SCT020
     FM181600 18005KT P6SM SCT025 BKN040
     FM181800 15008KT P6SM VCSH SCT025 BKN040
     FM190600 VRB03KT P6SM OVC050 PROB30 1906/1912 P6SM -RA OVC050=



000
FTUS42 KJAX 181315 AAA
TAFGNV
TAF AMD
KGNV 181315Z 1813/1912 VRB03KT P6SM FEW004 SCT015
      TEMPO 1813/1816 BKN015
     FM181600 24006KT P6SM SCT025 BKN040
     FM181800 24008KT P6SM VCTS SCT030CB BKN050
     FM190000 24005KT P6SM VCSH SCT030 BKN100=



000
FTUS42 KJAX 181315 AAA
TAFGNV
TAF AMD
KGNV 181315Z 1813/1912 VRB03KT P6SM FEW004 SCT015
      TEMPO 1813/1816 BKN015
     FM181600 24006KT P6SM SCT025 BKN040
     FM181800 24008KT P6SM VCTS SCT030CB BKN050
     FM190000 24005KT P6SM VCSH SCT030 BKN100=



000
FTUS42 KJAX 181313 AAB
TAFJAX
TAF AMD
KJAX 181313Z 1813/1912 00000KT P6SM SCT015 BKN025 BKN250
      TEMPO 1813/1815 BKN015
     FM181500 27008KT P6SM SCT025 BKN050
     FM182100 15008KT P6SM VCSH SCT030 BKN050
     FM190000 VRB03KT P6SM SCT025 OVC100=



000
FTUS42 KJAX 181313 AAB
TAFJAX
TAF AMD
KJAX 181313Z 1813/1912 00000KT P6SM SCT015 BKN025 BKN250
      TEMPO 1813/1815 BKN015
     FM181500 27008KT P6SM SCT025 BKN050
     FM182100 15008KT P6SM VCSH SCT030 BKN050
     FM190000 VRB03KT P6SM SCT025 OVC100=



000
FTUS42 KJAX 181312 AAA
TAFCRG
TAF AMD
KCRG 181312Z 1813/1912 21004KT P6SM SCT015
      TEMPO 1813/1815 BKN015
     FM181500 27006KT P6SM SCT025 BKN040
     FM182000 15008KT P6SM VCSH SCT030 BKN050
     FM190600 VRB03KT P6SM OVC100
      TEMPO 1908/1912 5SM HZ=



000
FTUS42 KJAX 181312 AAA
TAFCRG
TAF AMD
KCRG 181312Z 1813/1912 21004KT P6SM SCT015
      TEMPO 1813/1815 BKN015
     FM181500 27006KT P6SM SCT025 BKN040
     FM182000 15008KT P6SM VCSH SCT030 BKN050
     FM190600 VRB03KT P6SM OVC100
      TEMPO 1908/1912 5SM HZ=



000
FTUS42 KJAX 181134
TAFGNV
TAF
KGNV 181134Z 1812/1912 00000KT 5SM BR FEW005 SCT100 BKN150
      TEMPO 1812/1813 3SM BR BKN005
     FM181400 24005KT P6SM SCT005 BKN015 BKN120
     FM181600 25007KT P6SM SCT025 BKN040
     FM181800 25009KT P6SM VCTS SCT030CB BKN050
     FM190000 25005KT P6SM VCSH SCT030 BKN100=



000
FTUS42 KJAX 181134
TAFCRG
TAF
KCRG 181134Z 1812/1912 00000KT 3SM BR OVC002
     FM181400 24006KT 6SM HZ SCT005 BKN015 BKN120
     FM181600 27006KT P6SM SCT025 BKN040
     FM182000 15008KT P6SM VCSH SCT030 BKN050
     FM190600 VRB03KT P6SM OVC100
      TEMPO 1908/1912 5SM HZ=



000
FTUS42 KJAX 181134
TAFSSI
TAF
KSSI 181134Z 1812/1912 VRB03KT 6SM HZ SCT020 BKN040 OVC080
      TEMPO 1812/1813 5SM BR BKN005
     FM181400 21005KT P6SM SCT007 BKN015 BKN120
     FM181600 18005KT P6SM SCT025 BKN040
     FM181800 15008KT P6SM VCSH SCT025 BKN040
     FM190600 VRB03KT P6SM OVC050 PROB30 1906/1912 P6SM -RA OVC050=



000
FTUS42 KJAX 181134
TAFJAX
TAF
KJAX 181134Z 1812/1912 VRB03KT P6SM FEW045 BKN100 BKN250
      TEMPO 1812/1813 5SM BR BKN005
     FM181400 24005KT P6SM FEW005 SCT015 BKN025
     FM181600 27008KT P6SM SCT025 BKN050
     FM182100 15008KT P6SM VCSH SCT030 BKN050
     FM190000 VRB03KT P6SM SCT025 OVC100=



000
FTUS42 KJAX 181120
TAFGNV
TAF
KGNV 181120Z 1812/1912 00000KT 5SM BR SCT004 BKN015
      TEMPO 1812/1813 3SM BR BKN004
     FM181400 24005KT P6SM SCT007 BKN015 BKN120
     FM181600 25007KT P6SM SCT025 BKN040
     FM181800 25009KT P6SM VCTS SCT030CB BKN050
     FM190000 25005KT P6SM VCSH SCT030 BKN100=



000
FTUS42 KJAX 181120
TAFSSI
TAF
KSSI 181120Z 1812/1912 VRB03KT 6SM BR VCSH SCT004 BKN025
      TEMPO 1812/1813 5SM BR BKN004
     FM181400 22006KT P6SM SCT007 BKN015 BKN120
     FM181600 18005KT P6SM SCT025 BKN040
     FM181800 15008KT P6SM VCSH SCT025 BKN040
     FM182100 14008KT P6SM VCTS SCT030CB BKN050
     FM190300 18005KT P6SM VCSH SCT030 BKN080=



000
FTUS42 KJAX 181120
TAFCRG
TAF
KCRG 181120Z 1812/1912 20003KT 4SM BR BKN004
     FM181400 24006KT P6SM SCT007 BKN015 BKN120
     FM181600 26006KT P6SM SCT025 BKN040
     FM182000 16009KT P6SM VCTS SCT030CB BKN050
     FM190100 17005KT P6SM VCSH SCT030 BKN080=



000
FTUS42 KJAX 181120
TAFJAX
TAF
KJAX 181120Z 1812/1912 00000KT 6SM BR SCT004 BKN120
      TEMPO 1812/1814 5SM BR BKN004
     FM181400 24005KT P6SM SCT007 BKN015 BKN120
     FM181600 26007KT P6SM SCT025 BKN040
     FM182100 16007KT P6SM VCTS SCT030CB BKN050
     FM190100 17005KT P6SM VCSH SCT030 BKN080=



000
FTUS42 KJAX 181037 AAB
TAFSSI
TAF AMD
KSSI 181037Z 1811/1906 VRB03KT 6SM BR VCSH SCT004 BKN025
      TEMPO 1811/1813 5SM BR BKN004
     FM181400 22006KT P6SM SCT007 BKN015 BKN120
     FM181600 18005KT P6SM SCT025 BKN040
     FM181800 15008KT P6SM VCSH SCT025 BKN040=



000
FTUS42 KJAX 181037 AAB
TAFSSI
TAF AMD
KSSI 181037Z 1811/1906 VRB03KT 6SM BR VCSH SCT004 BKN025
      TEMPO 1811/1813 5SM BR BKN004
     FM181400 22006KT P6SM SCT007 BKN015 BKN120
     FM181600 18005KT P6SM SCT025 BKN040
     FM181800 15008KT P6SM VCSH SCT025 BKN040=



000
FTUS42 KJAX 181036 AAA
TAFGNV
TAF AMD
KGNV 181036Z 1811/1906 00000KT 5SM BR SCT004 BKN015
      TEMPO 1811/1813 3SM BR BKN004
     FM181400 24005KT P6SM SCT007 BKN015 BKN120
     FM181600 25007KT P6SM SCT025 BKN040
     FM181800 25009KT P6SM VCTS SCT030CB BKN050
     FM190000 25005KT P6SM VCSH SCT030 BKN100=



000
FTUS42 KJAX 181036 AAA
TAFGNV
TAF AMD
KGNV 181036Z 1811/1906 00000KT 5SM BR SCT004 BKN015
      TEMPO 1811/1813 3SM BR BKN004
     FM181400 24005KT P6SM SCT007 BKN015 BKN120
     FM181600 25007KT P6SM SCT025 BKN040
     FM181800 25009KT P6SM VCTS SCT030CB BKN050
     FM190000 25005KT P6SM VCSH SCT030 BKN100=



000
FTUS42 KJAX 181034 AAB
TAFJAX
TAF AMD
KJAX 181034Z 1811/1906 00000KT 6SM BR SCT004 BKN120
      TEMPO 1812/1814 5SM BR BKN004
     FM181400 24005KT P6SM SCT007 BKN015 BKN120
     FM181600 26007KT P6SM SCT025 BKN040
     FM182100 16007KT P6SM VCSH SCT030 BKN050=



000
FTUS42 KJAX 180907 AAA
TAFSSI
TAF AMD
KSSI 180907Z 1809/1906 VRB03KT 5SM BR VCSH BKN004
     FM181400 22006KT P6SM SCT007 BKN015 BKN120
     FM181600 18005KT P6SM SCT025 BKN040
     FM181800 15008KT P6SM VCSH SCT025 BKN040=



000
FTUS42 KJAX 180839 AAA
TAFCRG
TAF AMD
KCRG 180839Z 1809/1906 20003KT 4SM BR BKN004
     FM181400 24006KT P6SM SCT007 BKN015 BKN120
     FM181600 26006KT P6SM SCT025 BKN040
     FM182000 16009KT P6SM VCSH SCT030 BKN050=



000
FTUS42 KJAX 180553
TAFJAX
TAF
KJAX 180553Z 1806/1906 00000KT P6SM SCT030 BKN120
     FM180900 00000KT 5SM BR BKN004
     FM181400 24005KT P6SM SCT007 BKN015 BKN120
     FM181600 26007KT P6SM SCT025 BKN040
     FM182100 16007KT P6SM VCSH SCT030 BKN050=



000
FTUS42 KJAX 180553
TAFCRG
TAF
KCRG 180553Z 1806/1906 VRB03KT P6SM SCT030 BKN120
     FM181000 00000KT 6SM BR BKN004
     FM181400 24006KT P6SM SCT007 BKN015 BKN120
     FM181600 26006KT P6SM SCT025 BKN040
     FM182000 16009KT P6SM VCSH SCT030 BKN050=



000
FTUS42 KJAX 180553
TAFGNV
TAF
KGNV 180553Z 1806/1906 14003KT 4SM BR OVC004
     FM181000 00000KT 2SM BR OVC003
      TEMPO 1810/1813 1/2SM FG OVC002
     FM181400 24005KT P6SM SCT007 BKN015 BKN120
     FM181600 25007KT P6SM SCT025 BKN040
     FM181800 25009KT P6SM VCTS SCT030CB BKN050
     FM190000 25005KT P6SM VCSH SCT030 BKN100=



000
FTUS42 KJAX 180553
TAFSSI
TAF
KSSI 180553Z 1806/1906 22004KT P6SM SCT050 BKN120
     FM181000 00000KT P6SM VCSH BKN004
     FM181400 22006KT P6SM SCT007 BKN015 BKN120
     FM181600 18005KT P6SM SCT025 BKN040
     FM181800 15008KT P6SM VCSH SCT025 BKN040=



000
FTUS42 KJAX 180510 AAA
TAFGNV
TAF AMD
KGNV 180510Z 1805/1824 12003KT 4SM BR OVC004
     FM181000 00000KT 2SM BR OVC003
      TEMPO 1810/1813 1/2SM FG OVC002
     FM181400 24005KT P6SM SCT007 BKN015 BKN120
     FM181700 27008KT P6SM VCSH SCT025 SCT150 BKN250=



000
FTUS42 KJAX 180510 AAA
TAFGNV
TAF AMD
KGNV 180510Z 1805/1824 12003KT 4SM BR OVC004
     FM181000 00000KT 2SM BR OVC003
      TEMPO 1810/1813 1/2SM FG OVC002
     FM181400 24005KT P6SM SCT007 BKN015 BKN120
     FM181700 27008KT P6SM VCSH SCT025 SCT150 BKN250=



000
FTUS42 KJAX 172354
TAFGNV
TAF
KGNV 172354Z 1800/1824 11003KT P6SM VCSH SCT040 BKN120
     FM180600 00000KT P6SM VCSH SCT004 BKN070 BKN120
     FM181000 00000KT 5SM BR BKN004
      TEMPO 1810/1812 OVC002
     FM181400 24005KT P6SM SCT007 BKN015 BKN120
     FM181700 27008KT P6SM VCSH SCT025 SCT150 BKN250=



000
FTUS42 KJAX 172354
TAFJAX
TAF
KJAX 172354Z 1800/1824 10005KT P6SM VCSH SCT070 BKN110
     FM180600 00000KT P6SM VCSH SCT004 BKN070 BKN120
     FM180900 00000KT 5SM BR BKN004
     FM181400 24005KT P6SM SCT007 BKN015 BKN120
     FM181600 27008KT P6SM VCSH SCT025 SCT150 BKN250
     FM182000 13008KT P6SM VCSH SCT030 BKN150 OVC250=



000
FTUS42 KJAX 172354
TAFCRG
TAF
KCRG 172354Z 1800/1824 11004KT P6SM VCSH SCT070 BKN110
     FM180600 00000KT P6SM VCSH SCT004 BKN070 BKN120
     FM181000 00000KT 6SM BR BKN004
     FM181400 24006KT P6SM SCT007 BKN015 BKN120
     FM181700 16009KT P6SM VCSH SCT025 SCT150 BKN250=



000
FTUS42 KJAX 172354
TAFSSI
TAF
KSSI 172354Z 1800/1824 13005KT P6SM VCSH SCT070 BKN110 OVC250
     FM180600 16004KT P6SM -RA SCT004 BKN070 BKN120
     FM181000 00000KT P6SM VCSH BKN004
     FM181400 24006KT P6SM SCT007 BKN015 BKN120
     FM181700 16009KT P6SM VCSH SCT025 SCT150 BKN250=



000
FTUS42 KJAX 172354
TAFJAX
TAF
KJAX 172354Z 1800/1824 10005KT P6SM VCSH SCT070 BKN110
     FM180600 00000KT P6SM VCSH SCT004 BKN070 BKN120
     FM180900 00000KT 5SM BR BKN004
     FM181400 24005KT P6SM SCT007 BKN015 BKN120
     FM181600 27008KT P6SM VCSH SCT025 SCT150 BKN250
     FM182000 13008KT P6SM VCSH SCT030 BKN150 OVC250=



000
FTUS42 KJAX 172354
TAFGNV
TAF
KGNV 172354Z 1800/1824 11003KT P6SM VCSH SCT040 BKN120
     FM180600 00000KT P6SM VCSH SCT004 BKN070 BKN120
     FM181000 00000KT 5SM BR BKN004
      TEMPO 1810/1812 OVC002
     FM181400 24005KT P6SM SCT007 BKN015 BKN120
     FM181700 27008KT P6SM VCSH SCT025 SCT150 BKN250=



000
FTUS42 KJAX 172354
TAFCRG
TAF
KCRG 172354Z 1800/1824 11004KT P6SM VCSH SCT070 BKN110
     FM180600 00000KT P6SM VCSH SCT004 BKN070 BKN120
     FM181000 00000KT 6SM BR BKN004
     FM181400 24006KT P6SM SCT007 BKN015 BKN120
     FM181700 16009KT P6SM VCSH SCT025 SCT150 BKN250=



000
FTUS42 KJAX 172354
TAFSSI
TAF
KSSI 172354Z 1800/1824 13005KT P6SM VCSH SCT070 BKN110 OVC250
     FM180600 16004KT P6SM -RA SCT004 BKN070 BKN120
     FM181000 00000KT P6SM VCSH BKN004
     FM181400 24006KT P6SM SCT007 BKN015 BKN120
     FM181700 16009KT P6SM VCSH SCT025 SCT150 BKN250=



000
FTUS42 KJAX 172114 AAB
TAFCRG
TAF AMD
KCRG 172114Z 1721/1818 11009KT P6SM SCT025 BKN120 OVC250
     FM172300 14006KT P6SM VCSH SCT007 BKN025 BKN100
     FM180500 18003KT 6SM BR BKN007 OVC012
     FM180900 00000KT 5SM BR OVC003
     FM181430 27005KT P6SM BKN007 OVC015
     FM181600 12008KT P6SM VCSH SCT015 BKN025 OVC150=



000
FTUS42 KJAX 172114 AAB
TAFCRG
TAF AMD
KCRG 172114Z 1721/1818 11009KT P6SM SCT025 BKN120 OVC250
     FM172300 14006KT P6SM VCSH SCT007 BKN025 BKN100
     FM180500 18003KT 6SM BR BKN007 OVC012
     FM180900 00000KT 5SM BR OVC003
     FM181430 27005KT P6SM BKN007 OVC015
     FM181600 12008KT P6SM VCSH SCT015 BKN025 OVC150=



000
FTUS42 KJAX 172110 AAB
TAFJAX
TAF AMD
KJAX 172110Z 1721/1818 13007KT P6SM BKN025 BKN120 OVC250
      TEMPO 1721/1723 SCT025
     FM172300 16004KT P6SM VCSH SCT007 BKN025 BKN100
     FM180500 00000KT 6SM BR BKN007 OVC012
     FM180900 00000KT 5SM BR OVC003
     FM181430 24005KT P6SM BKN007 OVC015
     FM181600 27008KT P6SM VCSH SCT015 BKN025 OVC150=



000
FTUS42 KJAX 172058 AAA
TAFSSI
TAF AMD
KSSI 172058Z 1721/1818 13006KT P6SM VCSH SCT025 BKN120
     FM180500 18003KT P6SM SCT007 BKN012 OVC020
     FM180900 00000KT 6SM BR SCT003 BKN007 OVC012
     FM181000 00000KT 5SM BR BKN003 OVC007
     FM181430 27006KT P6SM BKN007 OVC015
     FM181600 11009KT P6SM VCSH SCT007 BKN020 OVC150=



000
FTUS42 KJAX 172058 AAA
TAFSSI
TAF AMD
KSSI 172058Z 1721/1818 13006KT P6SM VCSH SCT025 BKN120
     FM180500 18003KT P6SM SCT007 BKN012 OVC020
     FM180900 00000KT 6SM BR SCT003 BKN007 OVC012
     FM181000 00000KT 5SM BR BKN003 OVC007
     FM181430 27006KT P6SM BKN007 OVC015
     FM181600 11009KT P6SM VCSH SCT007 BKN020 OVC150=



000
FTUS42 KJAX 172029 AAA
TAFGNV
TAF AMD
KGNV 172029Z 1720/1818 07004KT P6SM VCSH BKN025 BKN100
      TEMPO 1722/1723 SCT025
     FM172300 11003KT P6SM VCSH SCT007 BKN020 BKN100
     FM180500 00000KT 6SM BR SCT002 BKN007 OVC012
     FM180900 VRB02KT 3SM BR OVC002
     FM181430 25004KT P6SM SCT002 BKN007 OVC015
     FM181600 27007KT P6SM VCSH SCT015 BKN025 OVC150=



000
FTUS42 KJAX 171950 AAA
TAFCRG
TAF AMD
KCRG 171950Z 1720/1818 11009KT P6SM BKN015 BKN100
      TEMPO 1721/1723 SCT015 BKN025
     FM172300 11005KT P6SM VCSH SCT007 BKN025 BKN100
     FM180500 VRB02KT 6SM BR BKN007 OVC012
     FM180900 VRB02KT 5SM BR OVC003
     FM181430 29004KT P6SM BKN007 OVC015
     FM181600 12007KT P6SM VCSH SCT015 BKN025 OVC150=



000
FTUS42 KJAX 171945 AAA
TAFJAX
TAF AMD
KJAX 171945Z 1720/1818 VRB03KT P6SM BKN025 BKN100
      TEMPO 1721/1723 SCT025
     FM172300 VRB04KT P6SM VCSH SCT007 BKN025 BKN100
     FM180500 VRB02KT 6SM BR BKN007 OVC012
     FM180900 VRB02KT 5SM BR OVC003
     FM181430 29004KT P6SM BKN007 OVC015
     FM181600 28004KT P6SM SCT015 BKN025 OVC150=



000
FTUS42 KJAX 171722
TAFGNV
TAF
KGNV 171722Z 1718/1818 VRB04KT P6SM VCSH BKN012 BKN025
     FM172100 VRB04KT P6SM VCTS SCT015 BKN035CB
     FM180200 VRB04KT P6SM VCSH BKN015 OVC030
     FM180900 VRB02KT 2SM BR OVC003
     FM181430 28004KT P6SM OVC008
     FM181600 28005KT P6SM OVC020=



000
FTUS42 KJAX 171722
TAFJAX
TAF
KJAX 171722Z 1718/1818 VRB03KT P6SM VCSH BKN012 OVC100
      TEMPO 1718/1720 SCT012 BKN100
     FM172000 VRB03KT P6SM VCSH SCT012 BKN025
     FM172300 VRB04KT P6SM VCSH SCT007 OVC018
     FM180500 VRB02KT P6SM OVC007
     FM180900 VRB02KT 5SM BR OVC003
     FM181430 29004KT P6SM OVC007
     FM181600 28004KT P6SM OVC015=



000
FTUS42 KJAX 171722
TAFSSI
TAF
KSSI 171722Z 1718/1818 VRB04KT P6SM VCSH SCT010 BKN100
      TEMPO 1718/1720 BKN010 OVC100
     FM172000 09007KT P6SM VCSH SCT007 OVC015
     FM180000 VRB04KT P6SM VCSH OVC015
     FM180500 VRB03KT P6SM VCSH OVC007
     FM180800 VRB03KT P6SM OVC003
     FM181600 VRB04KT P6SM OVC007=



000
FTUS42 KJAX 171722
TAFCRG
TAF
KCRG 171722Z 1718/1818 VRB03KT P6SM VCSH BKN012 OVC100
      TEMPO 1718/1720 SCT012 BKN100
     FM172000 VRB03KT P6SM VCSH SCT012 BKN025
     FM172300 VRB04KT P6SM VCSH SCT007 OVC018
     FM180500 VRB02KT P6SM OVC007
     FM180900 VRB02KT 4SM BR OVC002
     FM181430 29004KT P6SM OVC007
     FM181600 28005KT P6SM OVC015=



000
FTUS42 KJAX 171529 AAB
TAFGNV
TAF AMD
KGNV 171529Z 1715/1812 VRB03KT P6SM VCSH OVC007
     FM171700 VRB04KT P6SM VCSH BKN012 OVC020
     FM172100 VRB04KT P6SM VCTS SCT015 BKN025CB
     FM180200 VRB04KT P6SM VCSH BKN015 OVC030
     FM180900 VRB02KT 3SM BR OVC003=



000
FTUS42 KJAX 171525 AAA
TAFCRG
TAF AMD
KCRG 171525Z 1715/1812 VRB03KT 4SM BR OVC003
     FM171700 VRB04KT P6SM OVC007
     FM171800 VRB04KT P6SM VCSH BKN015 OVC030
     FM180000 VRB04KT P6SM VCSH BKN015 OVC030
     FM180800 VRB02KT 1SM BR OVC003=



000
FTUS42 KJAX 171525 AAA
TAFCRG
TAF AMD
KCRG 171525Z 1715/1812 VRB03KT 4SM BR OVC003
     FM171700 VRB04KT P6SM OVC007
     FM171800 VRB04KT P6SM VCSH BKN015 OVC030
     FM180000 VRB04KT P6SM VCSH BKN015 OVC030
     FM180800 VRB02KT 1SM BR OVC003=



000
FTUS42 KJAX 171415 AAB
TAFSSI
TAF AMD
KSSI 171415Z 1714/1812 VRB04KT P6SM OVC005
     FM171800 08007KT P6SM VCSH OVC010
     FM180000 VRB03KT P6SM VCSH OVC015
     FM180800 VRB02KT P6SM OVC003=



000
FTUS42 KJAX 171414 AAB
TAFJAX
TAF AMD
KJAX 171414Z 1714/1812 VRB04KT P6SM OVC007
     FM171700 VRB04KT P6SM VCSH BKN015 OVC030
     FM180000 VRB04KT P6SM VCSH BKN015 OVC030
     FM180800 VRB02KT 1SM BR OVC003=



000
FTUS42 KJAX 171230 AAA
TAFGNV
TAF AMD
KGNV 171230Z 1713/1812 00000KT 1SM -DZ BR OVC002
     FM171400 VRB02KT 3SM BR OVC003
     FM171500 VRB03KT 6SM -SHRA BR OVC007
     FM171600 VRB04KT P6SM VCTS SCT015 OVC025CB
     FM180000 VRB04KT P6SM VCSH BKN015 OVC030
     FM180900 VRB02KT 3SM BR OVC003=



000
FTUS42 KJAX 171229 AAA
TAFSSI
TAF AMD
KSSI 171229Z 1712/1812 VRB04KT 2SM BR OVC003
     FM171400 VRB04KT P6SM OVC004
     FM171800 08007KT P6SM VCSH OVC010
     FM180000 VRB03KT P6SM VCSH OVC015
     FM180800 VRB02KT P6SM OVC003=



000
FTUS42 KJAX 171120
TAFCRG
TAF
KCRG 171120Z 1712/1812 33004KT 1SM -DZ BR OVC004
     FM171400 34004KT 3SM BR OVC004
     FM171600 VRB04KT P6SM OVC007
     FM171700 VRB04KT P6SM VCTS BKN015 OVC030CB
     FM180000 VRB04KT P6SM VCSH BKN015 OVC030
     FM180800 VRB02KT 1SM BR OVC003=



000
FTUS42 KJAX 171120
TAFSSI
TAF
KSSI 171120Z 1712/1812 VRB03KT P6SM OVC003
     FM171800 08007KT P6SM VCSH OVC010
     FM180000 VRB03KT P6SM VCSH OVC015
     FM180800 VRB02KT P6SM OVC003=



000
FTUS42 KJAX 171120
TAFJAX
TAF
KJAX 171120Z 1712/1812 33004KT 1/4SM -DZ FG VV002
     FM171400 34004KT 3SM BR OVC004
     FM171600 VRB04KT P6SM OVC007
     FM171700 VRB04KT P6SM VCTS BKN015 OVC030CB
     FM180000 VRB04KT P6SM VCSH BKN015 OVC030
     FM180800 VRB02KT 1SM BR OVC003=



000
FTUS42 KJAX 171120
TAFJAX
TAF
KJAX 171120Z 1712/1812 33004KT 1/4SM -DZ FG VV002
     FM171400 34004KT 3SM BR OVC004
     FM171600 VRB04KT P6SM OVC007
     FM171700 VRB04KT P6SM VCTS BKN015 OVC030CB
     FM180000 VRB04KT P6SM VCSH BKN015 OVC030
     FM180800 VRB02KT 1SM BR OVC003=



000
FTUS42 KJAX 171120
TAFGNV
TAF
KGNV 171120Z 1712/1812 VRB03KT 5SM BR OVC004
     FM171500 VRB03KT 6SM -SHRA BR OVC007
     FM171600 VRB04KT P6SM VCTS SCT015 OVC025CB
     FM180000 VRB04KT P6SM VCSH BKN015 OVC030
     FM180900 VRB02KT 3SM BR OVC003=



000
FTUS42 KJAX 171120
TAFSSI
TAF
KSSI 171120Z 1712/1812 VRB03KT P6SM OVC003
     FM171800 08007KT P6SM VCSH OVC010
     FM180000 VRB03KT P6SM VCSH OVC015
     FM180800 VRB02KT P6SM OVC003=



000
FTUS42 KJAX 171120
TAFCRG
TAF
KCRG 171120Z 1712/1812 33004KT 1SM -DZ BR OVC004
     FM171400 34004KT 3SM BR OVC004
     FM171600 VRB04KT P6SM OVC007
     FM171700 VRB04KT P6SM VCTS BKN015 OVC030CB
     FM180000 VRB04KT P6SM VCSH BKN015 OVC030
     FM180800 VRB02KT 1SM BR OVC003=



000
FTUS42 KJAX 171120
TAFGNV
TAF
KGNV 171120Z 1712/1812 VRB03KT 5SM BR OVC004
     FM171500 VRB03KT 6SM -SHRA BR OVC007
     FM171600 VRB04KT P6SM VCTS SCT015 OVC025CB
     FM180000 VRB04KT P6SM VCSH BKN015 OVC030
     FM180900 VRB02KT 3SM BR OVC003=



000
FTUS42 KJAX 170730 AAB
TAFJAX
TAF AMD
KJAX 170730Z 1708/1806 36004KT 1/2SM FG VV002
     FM171400 36006KT P6SM BKN006 OVC020
     FM171800 03009KT P6SM VCTS SCT015 BKN030CB BKN150=



000
FTUS42 KJAX 170723 AAA
TAFSSI
TAF AMD
KSSI 170723Z 1707/1806 35006KT 5SM BR VCSH OVC004
     FM171400 36009KT P6SM BKN006 OVC020
     FM171700 03011KT P6SM VCTS SCT015 BKN030CB BKN150=



000
FTUS42 KJAX 170720 AAA
TAFJAX
TAF AMD
KJAX 170720Z 1707/1806 36004KT 1SM BR OVC003
     FM171400 36006KT P6SM BKN006 OVC020
     FM171800 03009KT P6SM VCTS SCT015 BKN030CB BKN150=



000
FTUS42 KJAX 170720 AAA
TAFJAX
TAF AMD
KJAX 170720Z 1707/1806 36004KT 1SM BR OVC003
     FM171400 36006KT P6SM BKN006 OVC020
     FM171800 03009KT P6SM VCTS SCT015 BKN030CB BKN150=



000
FTUS42 KJAX 170533
TAFSSI
TAF
KSSI 170533Z 1706/1806 35006KT 6SM BR VCSH OVC006
     FM171000 35006KT 5SM BR OVC005
     FM171400 36009KT P6SM BKN006 OVC020
     FM171700 03011KT P6SM VCTS SCT015 BKN030CB BKN150=



000
FTUS42 KJAX 170533
TAFJAX
TAF
KJAX 170533Z 1706/1806 36004KT 5SM BR VCSH OVC006
     FM171000 35003KT 3SM BR OVC005
     FM171400 36006KT P6SM BKN006 OVC020
     FM171800 03009KT P6SM VCTS SCT015 BKN030CB BKN150=



000
FTUS42 KJAX 170533
TAFCRG
TAF
KCRG 170533Z 1706/1806 01006KT P6SM VCSH OVC007
     FM171000 35004KT 5SM BR OVC005
     FM171400 36007KT P6SM BKN006 OVC020
     FM171700 03010KT P6SM VCTS SCT015 BKN030CB BKN150=



000
FTUS42 KJAX 170533
TAFGNV
TAF
KGNV 170533Z 1706/1806 05006KT 6SM BR VCSH OVC006
     FM171000 00000KT 3SM BR OVC004
     FM171400 05005KT P6SM BKN015 OVC030
     FM171900 27007KT P6SM VCTS SCT015 BKN030CB BKN150=



000
FTUS42 KJAX 170533
TAFCRG
TAF
KCRG 170533Z 1706/1806 01006KT P6SM VCSH OVC007
     FM171000 35004KT 5SM BR OVC005
     FM171400 36007KT P6SM BKN006 OVC020
     FM171700 03010KT P6SM VCTS SCT015 BKN030CB BKN150=



000
FTUS42 KJAX 170533
TAFSSI
TAF
KSSI 170533Z 1706/1806 35006KT 6SM BR VCSH OVC006
     FM171000 35006KT 5SM BR OVC005
     FM171400 36009KT P6SM BKN006 OVC020
     FM171700 03011KT P6SM VCTS SCT015 BKN030CB BKN150=



000
FTUS42 KJAX 170533
TAFJAX
TAF
KJAX 170533Z 1706/1806 36004KT 5SM BR VCSH OVC006
     FM171000 35003KT 3SM BR OVC005
     FM171400 36006KT P6SM BKN006 OVC020
     FM171800 03009KT P6SM VCTS SCT015 BKN030CB BKN150=



000
FTUS42 KJAX 170533
TAFGNV
TAF
KGNV 170533Z 1706/1806 05006KT 6SM BR VCSH OVC006
     FM171000 00000KT 3SM BR OVC004
     FM171400 05005KT P6SM BKN015 OVC030
     FM171900 27007KT P6SM VCTS SCT015 BKN030CB BKN150=



000
FTUS42 KJAX 170115 AAA
TAFSSI
TAF AMD
KSSI 170115Z 1701/1724 36007KT P6SM VCSH BKN010 OVC120
     FM170500 36006KT 6SM BR VCSH OVC008
     FM171000 35006KT 5SM BR OVC005
     FM171400 36009KT P6SM BKN006 OVC020
     FM171700 03011KT P6SM VCTS SCT015 BKN030CB BKN150=



000
FTUS42 KJAX 170110 AAA
TAFCRG
TAF AMD
KCRG 170110Z 1701/1724 04005KT P6SM -RA BKN007 OVC120
     FM170500 36006KT P6SM VCSH BKN006 OVC012
     FM171000 35004KT 5SM BR OVC005
     FM171400 36007KT P6SM BKN006 OVC020
     FM171700 03010KT P6SM VCTS SCT015 BKN030CB BKN150=



000
FTUS42 KJAX 170109 AAA
TAFJAX
TAF AMD
KJAX 170109Z 1701/1724 04005KT 6SM -RA BR SCT006 BKN010 OVC120
      TEMPO 1702/1705 BKN009
     FM170500 36004KT 5SM BR VCSH BKN008 OVC012
     FM171000 35003KT 3SM BR OVC005
     FM171400 36006KT P6SM BKN006 OVC020
     FM171800 03009KT P6SM VCTS SCT015 BKN030CB BKN150=



000
FTUS42 KJAX 162359
TAFJAX
TAF
KJAX 162359Z 1700/1724 02005KT 5SM BR VCSH SCT008 BKN012 OVC120
     FM170500 36004KT 5SM BR VCSH BKN008 OVC012
     FM171000 35003KT 3SM BR OVC005
     FM171400 36006KT P6SM BKN006 OVC020
     FM171800 03009KT P6SM VCTS SCT015 BKN030CB BKN150=



000
FTUS42 KJAX 162359
TAFCRG
TAF
KCRG 162359Z 1700/1724 02006KT P6SM VCSH BKN006 OVC120
     FM170500 36006KT 6SM BR VCSH BKN008 OVC012
     FM171000 35004KT 5SM BR OVC005
     FM171400 36007KT P6SM BKN006 OVC020
     FM171700 03010KT P6SM VCTS SCT015 BKN030CB BKN150=



000
FTUS42 KJAX 162359
TAFJAX
TAF
KJAX 162359Z 1700/1724 02005KT 5SM BR VCSH SCT008 BKN012 OVC120
     FM170500 36004KT 5SM BR VCSH BKN008 OVC012
     FM171000 35003KT 3SM BR OVC005
     FM171400 36006KT P6SM BKN006 OVC020
     FM171800 03009KT P6SM VCTS SCT015 BKN030CB BKN150=



000
FTUS42 KJAX 162359
TAFSSI
TAF
KSSI 162359Z 1700/1724 36007KT P6SM VCSH BKN006 OVC120
     FM170500 36006KT 6SM BR VCSH OVC005
     FM171000 35006KT 5SM BR OVC005
     FM171400 36009KT P6SM BKN006 OVC020
     FM171700 03011KT P6SM VCTS SCT015 BKN030CB BKN150=



000
FTUS42 KJAX 162359
TAFGNV
TAF
KGNV 162359Z 1700/1724 06009KT P6SM -RA SCT006 BKN009 OVC120
     FM170500 03006KT 6SM BR VCSH BKN006 OVC009
     FM171000 00000KT 3SM BR OVC004
     FM171400 05005KT P6SM BKN015 OVC030
     FM171900 27007KT P6SM VCTS SCT015 BKN030CB BKN150=



000
FTUS42 KJAX 162359
TAFGNV
TAF
KGNV 162359Z 1700/1724 06009KT P6SM -RA SCT006 BKN009 OVC120
     FM170500 03006KT 6SM BR VCSH BKN006 OVC009
     FM171000 00000KT 3SM BR OVC004
     FM171400 05005KT P6SM BKN015 OVC030
     FM171900 27007KT P6SM VCTS SCT015 BKN030CB BKN150=



000
FTUS42 KJAX 162359
TAFCRG
TAF
KCRG 162359Z 1700/1724 02006KT P6SM VCSH BKN006 OVC120
     FM170500 36006KT 6SM BR VCSH BKN008 OVC012
     FM171000 35004KT 5SM BR OVC005
     FM171400 36007KT P6SM BKN006 OVC020
     FM171700 03010KT P6SM VCTS SCT015 BKN030CB BKN150=



000
FTUS42 KJAX 162359
TAFSSI
TAF
KSSI 162359Z 1700/1724 36007KT P6SM VCSH BKN006 OVC120
     FM170500 36006KT 6SM BR VCSH OVC005
     FM171000 35006KT 5SM BR OVC005
     FM171400 36009KT P6SM BKN006 OVC020
     FM171700 03011KT P6SM VCTS SCT015 BKN030CB BKN150=



000
FTUS42 KJAX 161932 AAA
TAFSSI
TAF AMD
KSSI 161932Z 1620/1718 36009KT P6SM OVC012
     FM170100 03007KT P6SM OVC006
     FM170400 01005KT P6SM OVC003
     FM171500 03008KT P6SM VCSH OVC008=



000
FTUS42 KJAX 161932 AAA
TAFSSI
TAF AMD
KSSI 161932Z 1620/1718 36009KT P6SM OVC012
     FM170100 03007KT P6SM OVC006
     FM170400 01005KT P6SM OVC003
     FM171500 03008KT P6SM VCSH OVC008=



000
FTUS42 KJAX 161922 AAB
TAFJAX
TAF AMD
KJAX 161922Z 1619/1718 04009KT 5SM BR OVC008
     FM170200 01004KT P6SM OVC008
     FM170700 01004KT P6SM OVC003
     FM171000 01004KT 3SM BR OVC003
     FM171500 36006KT 6SM BR VCSH OVC008=



000
FTUS42 KJAX 161921 AAA
TAFGNV
TAF AMD
KGNV 161921Z 1619/1718 05009KT P6SM OVC020
     FM170000 05005KT P6SM SCT008 OVC012
     FM170500 02004KT P6SM OVC008
     FM170700 01003KT P6SM OVC003
     FM171000 02002KT 3SM BR OVC002
     FM171500 03004KT 6SM BR VCSH OVC008=



000
FTUS42 KJAX 161721
TAFJAX
TAF
KJAX 161721Z 1618/1718 04012KT 6SM BR OVC008
     FM170200 01004KT P6SM OVC008
     FM170700 01004KT P6SM OVC003
     FM171000 01004KT 3SM BR OVC003
     FM171500 36006KT 6SM BR VCSH OVC008=



000
FTUS42 KJAX 161721
TAFSSI
TAF
KSSI 161721Z 1618/1718 02010G16KT P6SM OVC008
     FM170100 03007KT P6SM OVC006
     FM170400 01005KT P6SM OVC003
     FM171500 03008KT P6SM VCSH OVC008=



000
FTUS42 KJAX 161721
TAFGNV
TAF
KGNV 161721Z 1618/1718 05008KT P6SM OVC015
     FM162000 05008KT P6SM VCTS OVC020CB
     FM170000 05005KT P6SM SCT008 OVC012
     FM170500 02004KT P6SM OVC008
     FM170700 01003KT P6SM OVC003
     FM171000 02002KT 3SM BR OVC002
     FM171500 03004KT 6SM BR VCSH OVC008=



000
FTUS42 KJAX 161721
TAFCRG
TAF
KCRG 161721Z 1618/1718 04012G18KT P6SM OVC007
     FM170200 01004KT P6SM OVC003
     FM171000 01004KT 3SM BR OVC003
     FM171500 36006KT 6SM BR VCSH OVC008=



000
FTUS42 KJAX 161712 AAB
TAFCRG
TAF AMD
KCRG 161712Z 1617/1712 04012G18KT P6SM OVC007
     FM170200 01004KT P6SM OVC003
     FM171000 01004KT 3SM BR OVC003=



000
FTUS42 KJAX 161712 AAB
TAFCRG
TAF AMD
KCRG 161712Z 1617/1712 04012G18KT P6SM OVC007
     FM170200 01004KT P6SM OVC003
     FM171000 01004KT 3SM BR OVC003=



000
FTUS42 KJAX 161710 AAC
TAFJAX
TAF AMD
KJAX 161710Z 1617/1712 04012KT 6SM BR OVC008
     FM170200 01004KT P6SM OVC008
     FM170700 01004KT P6SM OVC003
     FM171000 01004KT 3SM BR OVC003=



000
FTUS42 KJAX 161710 AAC
TAFJAX
TAF AMD
KJAX 161710Z 1617/1712 04012KT 6SM BR OVC008
     FM170200 01004KT P6SM OVC008
     FM170700 01004KT P6SM OVC003
     FM171000 01004KT 3SM BR OVC003=



000
FTUS42 KJAX 161638 AAA
TAFCRG
TAF AMD
KCRG 161638Z 1617/1712 04010G16KT 6SM BR OVC007
     FM161900 04012G18KT P6SM OVC010
     FM170000 36004KT P6SM OVC008
     FM170700 01004KT P6SM OVC003
     FM171000 01004KT 3SM BR OVC003=



000
FTUS42 KJAX 161638 AAA
TAFCRG
TAF AMD
KCRG 161638Z 1617/1712 04010G16KT 6SM BR OVC007
     FM161900 04012G18KT P6SM OVC010
     FM170000 36004KT P6SM OVC008
     FM170700 01004KT P6SM OVC003
     FM171000 01004KT 3SM BR OVC003=



000
FTUS42 KJAX 161636 AAC
TAFJAX
TAF AMD
KJAX 161636Z 1617/1712 04012KT 6SM BR OVC008
     FM161800 04012KT P6SM OVC012
     FM170000 02005KT P6SM SCT008 OVC012
     FM170500 36004KT P6SM OVC008
     FM170700 01004KT P6SM OVC003
     FM171000 01004KT 3SM BR OVC003=



000
FTUS42 KJAX 161636 AAC
TAFJAX
TAF AMD
KJAX 161636Z 1617/1712 04012KT 6SM BR OVC008
     FM161800 04012KT P6SM OVC012
     FM170000 02005KT P6SM SCT008 OVC012
     FM170500 36004KT P6SM OVC008
     FM170700 01004KT P6SM OVC003
     FM171000 01004KT 3SM BR OVC003=



000
FTUS42 KJAX 161600 AAB
TAFGNV
TAF AMD
KGNV 161600Z 1616/1712 06008KT P6SM OVC012
     FM162000 05008KT P6SM VCTS OVC015CB
     FM170000 05005KT P6SM SCT008 OVC012
     FM170500 02004KT P6SM OVC008
     FM170700 01003KT P6SM OVC003
     FM171000 02002KT 3SM BR OVC002=



000
FTUS42 KJAX 161358 AAB
TAFJAX
TAF AMD
KJAX 161358Z 1614/1712 04008KT 5SM BR OVC005
     FM161500 04010KT P6SM OVC008
     FM161630 04012KT P6SM OVC012
     FM170000 01005KT P6SM SCT006 OVC012
     FM170800 01004KT P6SM OVC003=



000
FTUS42 KJAX 161306 AAA
TAFGNV
TAF AMD
KGNV 161306Z 1613/1712 02007KT 6SM -SHRA BR OVC004
     FM161500 04005KT P6SM OVC008
     FM161700 05008KT P6SM OVC020
     FM170000 05005KT P6SM SCT006 OVC015
     FM170800 01003KT P6SM OVC003=



000
FTUS42 KJAX 161306 AAA
TAFGNV
TAF AMD
KGNV 161306Z 1613/1712 02007KT 6SM -SHRA BR OVC004
     FM161500 04005KT P6SM OVC008
     FM161700 05008KT P6SM OVC020
     FM170000 05005KT P6SM SCT006 OVC015
     FM170800 01003KT P6SM OVC003=



000
FTUS42 KJAX 161304 AAA
TAFSSI
TAF AMD
KSSI 161304Z 1613/1712 04012G18KT P6SM OVC008
     FM162000 03012G18KT P6SM OVC015
     FM170000 03007KT P6SM SCT006 OVC012
     FM170500 01005KT P6SM OVC003=



000
FTUS42 KJAX 161304 AAA
TAFSSI
TAF AMD
KSSI 161304Z 1613/1712 04012G18KT P6SM OVC008
     FM162000 03012G18KT P6SM OVC015
     FM170000 03007KT P6SM SCT006 OVC012
     FM170500 01005KT P6SM OVC003=



000
FTUS42 KJAX 161152 AAA
TAFJAX
TAF AMD
KJAX 161152Z 1612/1712 03008KT 2SM -DZ BR OVC004
     FM161400 04010KT P6SM OVC008
     FM161600 04012KT P6SM OVC012
     FM170000 01005KT P6SM SCT006 OVC012
     FM170800 01004KT P6SM OVC003=



000
FTUS42 KJAX 161123
TAFGNV
TAF
KGNV 161123Z 1612/1712 01007KT 2SM BR OVC003
     FM161400 04005KT P6SM OVC008
     FM161500 05008KT P6SM OVC020
     FM170000 05005KT P6SM SCT006 OVC015
     FM170800 01003KT P6SM OVC003=



000
FTUS42 KJAX 161123
TAFCRG
TAF
KCRG 161123Z 1612/1712 02008KT 6SM -DZ BR OVC004
     FM161400 04010KT P6SM OVC008
     FM161700 04012G18KT P6SM OVC012
     FM170000 01005KT P6SM SCT006 OVC012
     FM170800 01004KT P6SM OVC003=



000
FTUS42 KJAX 161123
TAFGNV
TAF
KGNV 161123Z 1612/1712 01007KT 2SM BR OVC003
     FM161400 04005KT P6SM OVC008
     FM161500 05008KT P6SM OVC020
     FM170000 05005KT P6SM SCT006 OVC015
     FM170800 01003KT P6SM OVC003=



000
FTUS42 KJAX 161123
TAFSSI
TAF
KSSI 161123Z 1612/1712 03011KT 4SM -DZ BR OVC005
     FM161400 04012KT P6SM OVC007
     FM161600 04012G18KT P6SM OVC008
     FM162000 03012G18KT P6SM OVC015
     FM170000 03007KT P6SM SCT006 OVC012
     FM170500 01005KT P6SM OVC003=



000
FTUS42 KJAX 161123
TAFCRG
TAF
KCRG 161123Z 1612/1712 02008KT 6SM -DZ BR OVC004
     FM161400 04010KT P6SM OVC008
     FM161700 04012G18KT P6SM OVC012
     FM170000 01005KT P6SM SCT006 OVC012
     FM170800 01004KT P6SM OVC003=



000
FTUS42 KJAX 161123
TAFJAX
TAF
KJAX 161123Z 1612/1712 03008KT 6SM -DZ BR OVC004
     FM161400 04010KT P6SM OVC008
     FM161600 04012KT P6SM OVC012
     FM170000 01005KT P6SM SCT006 OVC012
     FM170800 01004KT P6SM OVC003=



000
FTUS42 KJAX 161123
TAFJAX
TAF
KJAX 161123Z 1612/1712 03008KT 6SM -DZ BR OVC004
     FM161400 04010KT P6SM OVC008
     FM161600 04012KT P6SM OVC012
     FM170000 01005KT P6SM SCT006 OVC012
     FM170800 01004KT P6SM OVC003=



000
FTUS42 KJAX 161123
TAFSSI
TAF
KSSI 161123Z 1612/1712 03011KT 4SM -DZ BR OVC005
     FM161400 04012KT P6SM OVC007
     FM161600 04012G18KT P6SM OVC008
     FM162000 03012G18KT P6SM OVC015
     FM170000 03007KT P6SM SCT006 OVC012
     FM170500 01005KT P6SM OVC003=



000
FTUS42 KJAX 161114 AAA
TAFGNV
TAF AMD
KGNV 161114Z 1611/1706 01007KT 2SM BR OVC003
     FM161400 04005KT P6SM OVC008
     FM161500 05008KT P6SM OVC020
     FM170000 05005KT P6SM SCT006 OVC015=



000
FTUS42 KJAX 161114 AAA
TAFGNV
TAF AMD
KGNV 161114Z 1611/1706 01007KT 2SM BR OVC003
     FM161400 04005KT P6SM OVC008
     FM161500 05008KT P6SM OVC020
     FM170000 05005KT P6SM SCT006 OVC015=



    US Dept of Commerce
    National Oceanic and Atmospheric Administration
    National Weather Service
    1325 East West Highway
    Silver Spring, MD 20910
    Page Author: NWS Internet Services Team
Disclaimer
Information Quality
Credits
Glossary
Privacy Policy
Freedom of Information Act (FOIA)
About Us
Career Opportunities